Time;durP1;ratioP1;P1;durP2;ratioP2;P2;SDS_P1;SDS_P2;PMS_P1;PMS_P2;Temp;Humidity;BMP_temperature;BMP_pressure;BME280_temperature;BME280_humidity;BME280_pressure;Samples;Min_cycle;Max_cycle;Signal;HPM_P1;HPM_P2
2023/05/18 00:01:52;;;;;;;6.03;3.97;;;;;;;9.42;93.26;96961.94;5073401;28;20211;-59
2023/05/18 00:04:22;;;;;;;5.33;3.90;;;;;;;9.34;92.03;96953.00;5072778;28;20307;-59
2023/05/18 00:06:55;;;;;;;4.33;3.80;;;;;;;9.36;94.40;96954.53;5073595;28;20295;-60
2023/05/18 00:09:23;;;;;;;5.33;3.70;;;;;;;9.27;97.33;96946.56;5072609;28;20209;-59
2023/05/18 00:11:51;;;;;;;5.07;3.63;;;;;;;9.27;95.07;96951.84;5079393;28;20312;-61
2023/05/18 00:14:17;;;;;;;5.90;3.90;;;;;;;9.19;92.25;96939.28;5096658;28;20201;-62
2023/05/18 00:16:44;;;;;;;5.57;3.93;;;;;;;9.19;91.47;96938.44;5097654;28;20217;-60
2023/05/18 00:19:13;;;;;;;4.73;4.13;;;;;;;9.20;94.81;96942.75;5094618;28;20291;-60
2023/05/18 00:21:40;;;;;;;6.63;3.97;;;;;;;9.18;97.33;96932.31;5072236;28;20286;-60
2023/05/18 00:24:09;;;;;;;4.30;3.90;;;;;;;9.15;98.87;96932.59;5073315;28;20210;-61
2023/05/18 00:26:36;;;;;;;5.43;3.80;;;;;;;9.11;97.75;96931.16;5073755;28;20218;-61
2023/05/18 00:29:04;;;;;;;6.03;3.90;;;;;;;9.15;95.24;96931.75;5074184;28;20202;-61
2023/05/18 00:31:34;;;;;;;5.13;3.73;;;;;;;9.11;95.04;96930.31;5074622;28;20203;-60
2023/05/18 00:34:01;;;;;;;5.13;3.97;;;;;;;9.10;96.36;96923.38;5071417;28;20201;-60
2023/05/18 00:36:28;;;;;;;4.63;3.93;;;;;;;9.06;96.20;96928.09;5072260;28;20206;-60
2023/05/18 00:38:54;;;;;;;5.17;3.80;;;;;;;9.08;96.62;96927.94;5071468;28;20616;-59
2023/05/18 00:41:21;;;;;;;4.73;3.80;;;;;;;8.99;99.73;96922.47;5072490;28;20198;-60
2023/05/18 00:43:48;;;;;;;5.27;3.57;;;;;;;9.05;100.00;96925.56;5071850;28;20531;-61
2023/05/18 00:46:15;;;;;;;6.53;4.00;;;;;;;8.94;97.14;96927.28;5073044;28;20203;-60
2023/05/18 00:48:42;;;;;;;4.87;3.70;;;;;;;8.97;94.84;96919.09;5073158;28;20237;-61
2023/05/18 00:51:09;;;;;;;6.07;4.20;;;;;;;9.05;95.57;96917.63;5073445;28;20206;-61
2023/05/18 00:53:36;;;;;;;6.93;4.00;;;;;;;9.01;93.76;96911.78;5073965;28;20203;-61
2023/05/18 00:56:02;;;;;;;4.43;3.83;;;;;;;9.05;94.43;96912.38;5072385;28;20198;-60
2023/05/18 00:58:30;;;;;;;5.47;3.87;;;;;;;9.06;94.79;96908.78;5071960;28;20546;-60
2023/05/18 01:00:57;;;;;;;6.60;4.10;;;;;;;9.02;95.40;96899.44;5071436;28;20666;-60
2023/05/18 01:03:25;;;;;;;6.10;3.93;;;;;;;9.10;94.49;96902.28;5072138;28;20194;-60
2023/05/18 01:05:57;;;;;;;5.90;4.33;;;;;;;9.10;96.39;96895.22;5072590;28;20285;-60
2023/05/18 01:08:23;;;;;;;5.93;4.40;;;;;;;9.09;95.56;96892.69;5071635;28;20206;-61
2023/05/18 01:10:54;;;;;;;4.93;4.23;;;;;;;9.05;99.30;96904.44;5072053;28;20249;-61
2023/05/18 01:13:25;;;;;;;5.30;3.50;;;;;;;9.07;98.61;96900.72;5071704;28;20221;-61
2023/05/18 01:15:54;;;;;;;7.07;4.20;;;;;;;9.05;98.04;96896.53;5070974;28;20207;-60
2023/05/18 01:18:27;;;;;;;5.13;4.13;;;;;;;9.03;96.37;96906.41;5069911;28;20268;-59
2023/05/18 01:20:59;;;;;;;5.63;4.20;;;;;;;9.00;100.00;96899.53;5071187;28;20198;-61
2023/05/18 01:23:59;;;;;;;6.03;4.23;;;;;;;8.99;100.00;96896.09;5069987;28;20237;-61
2023/05/18 01:26:30;;;;;;;4.73;4.13;;;;;;;8.97;98.64;96894.53;5071518;28;20650;-60
2023/05/18 01:28:59;;;;;;;5.73;4.10;;;;;;;8.96;98.11;96893.69;5070478;28;20210;-60
2023/05/18 01:31:26;;;;;;;6.50;3.97;;;;;;;8.96;100.00;96884.97;5071492;28;20223;-60
2023/05/18 01:33:52;;;;;;;5.50;3.90;;;;;;;8.92;100.00;96887.03;5071521;28;20210;-61
2023/05/18 01:36:20;;;;;;;9.40;4.87;;;;;;;8.79;100.00;96886.34;5071110;28;20644;-60
2023/05/18 01:38:47;;;;;;;4.57;4.17;;;;;;;8.82;100.00;96882.63;5071621;28;20532;-60
2023/05/18 01:41:18;;;;;;;4.33;3.93;;;;;;;8.77;100.00;96885.63;5071334;28;20202;-62
2023/05/18 01:43:52;;;;;;;5.80;4.10;;;;;;;8.68;100.00;96881.09;5071403;28;20541;-61
2023/05/18 01:46:25;;;;;;;4.73;3.83;;;;;;;8.76;100.00;96872.56;5071221;28;20206;-61
2023/05/18 01:48:57;;;;;;;4.57;4.10;;;;;;;8.69;100.00;96877.50;5070697;28;20262;-60
2023/05/18 01:51:26;;;;;;;5.17;4.03;;;;;;;8.67;100.00;96874.19;5071345;28;20217;-60
2023/05/18 01:53:57;;;;;;;4.70;3.80;;;;;;;8.60;100.00;96875.63;5070759;28;20218;-61
2023/05/18 01:56:25;;;;;;;5.53;4.13;;;;;;;8.65;100.00;96878.72;5070632;28;20293;-60
2023/05/18 01:58:54;;;;;;;5.90;4.03;;;;;;;8.69;100.00;96874.88;5070944;28;20207;-59
2023/05/18 02:01:22;;;;;;;4.83;4.33;;;;;;;8.69;100.00;96866.13;5071927;28;20209;-61
2023/05/18 02:03:49;;;;;;;5.67;4.40;;;;;;;8.71;100.00;96870.34;5071432;28;20203;-60
2023/05/18 02:06:15;;;;;;;6.50;4.27;;;;;;;8.73;100.00;96867.56;5071765;28;20210;-61
2023/05/18 02:08:42;;;;;;;6.47;4.43;;;;;;;8.75;99.86;96866.44;5071044;28;20291;-61
2023/05/18 02:11:08;;;;;;;4.40;4.00;;;;;;;8.75;100.00;96861.19;5070947;28;20199;-60
2023/05/18 02:13:35;;;;;;;5.07;4.47;;;;;;;8.79;98.52;96862.59;5070472;28;20874;-60
2023/05/18 02:16:04;;;;;;;4.50;4.03;;;;;;;8.80;98.89;96861.66;5071540;28;20202;-61
2023/05/18 02:18:32;;;;;;;4.87;4.10;;;;;;;8.82;99.93;96866.81;5069902;28;20615;-62
2023/05/18 02:20:59;;;;;;;8.23;4.40;;;;;;;8.84;98.87;96860.44;5070856;28;20206;-62
2023/05/18 02:23:26;;;;;;;4.97;4.07;;;;;;;8.90;100.00;96859.06;5071567;28;20325;-62
2023/05/18 02:25:54;;;;;;;6.27;4.30;;;;;;;8.90;99.29;96859.06;5071959;28;20202;-60
2023/05/18 02:28:20;;;;;;;6.80;4.50;;;;;;;8.84;98.02;96860.44;5071063;28;20551;-60
2023/05/18 02:30:47;;;;;;;6.13;4.37;;;;;;;8.89;99.03;96849.50;5070463;28;20639;-59
2023/05/18 02:33:16;;;;;;;6.20;4.17;;;;;;;8.88;97.97;96859.22;5070726;28;20210;-59
2023/05/18 02:35:43;;;;;;;7.73;4.10;;;;;;;8.90;98.98;96859.91;5070110;28;20214;-60
2023/05/18 02:38:09;;;;;;;6.23;4.20;;;;;;;8.89;98.44;96860.88;5070378;28;20213;-61
2023/05/18 02:40:36;;;;;;;7.70;4.43;;;;;;;8.86;98.34;96857.66;5070315;28;20213;-60
2023/05/18 02:43:02;;;;;;;4.90;4.33;;;;;;;8.94;97.73;96860.50;5062961;28;20214;-59
2023/05/18 02:45:28;;;;;;;7.73;4.10;;;;;;;8.92;98.21;96855.38;5067496;28;20586;-60
2023/05/18 02:47:55;;;;;;;6.20;4.33;;;;;;;8.86;96.98;96852.38;5070137;28;20234;-60
2023/05/18 02:50:23;;;;;;;7.87;4.60;;;;;;;8.84;98.67;96855.16;5070696;28;20217;-60
2023/05/18 02:52:50;;;;;;;6.23;4.30;;;;;;;8.88;99.53;96851.31;5069679;28;20206;-61
2023/05/18 02:55:17;;;;;;;7.93;4.87;;;;;;;8.82;99.34;96851.81;5070555;28;20297;-59
2023/05/18 02:57:45;;;;;;;6.00;4.10;;;;;;;8.83;100.00;96850.00;5069537;28;20217;-59
2023/05/18 03:00:15;;;;;;;6.20;4.40;;;;;;;8.81;99.89;96857.22;5071777;28;20213;-60
2023/05/18 03:02:43;;;;;;;5.70;4.17;;;;;;;8.77;100.00;96864.53;5073922;28;20627;-60
2023/05/18 03:05:09;;;;;;;4.83;4.20;;;;;;;8.73;100.00;96863.13;5074137;28;20202;-60
2023/05/18 03:07:37;;;;;;;5.90;4.13;;;;;;;8.73;100.00;96864.91;5073530;28;20309;-60
2023/05/18 03:10:04;;;;;;;9.63;4.67;;;;;;;8.66;100.00;96861.09;5074345;28;20264;-60
2023/05/18 03:12:30;;;;;;;5.53;4.10;;;;;;;8.64;100.00;96863.03;5074118;28;20214;-59
2023/05/18 03:14:57;;;;;;;4.93;4.43;;;;;;;8.62;100.00;96865.78;5073969;28;20233;-60
2023/05/18 03:17:23;;;;;;;6.07;4.10;;;;;;;8.54;100.00;96856.84;5073889;28;20229;-60
2023/05/18 03:19:50;;;;;;;6.97;4.20;;;;;;;8.51;100.00;96863.19;5073621;28;20854;-60
2023/05/18 03:22:16;;;;;;;4.37;3.97;;;;;;;8.51;100.00;96868.47;5073296;28;20230;-60
2023/05/18 03:24:44;;;;;;;6.97;4.23;;;;;;;8.46;100.00;96870.66;5073708;28;20195;-59
2023/05/18 03:27:15;;;;;;;6.20;4.13;;;;;;;8.52;100.00;96864.03;5073353;28;20207;-59
2023/05/18 03:29:41;;;;;;;5.17;4.20;;;;;;;8.54;100.00;96862.94;5073554;28;20257;-60
2023/05/18 03:32:08;;;;;;;6.13;3.97;;;;;;;8.58;100.00;96853.81;5073466;28;20218;-60
2023/05/18 03:34:35;;;;;;;6.90;4.57;;;;;;;8.58;100.00;96864.38;5073562;28;20535;-60
2023/05/18 03:37:02;;;;;;;5.77;4.50;;;;;;;8.49;100.00;96863.34;5073912;28;20287;-59
2023/05/18 03:39:29;;;;;;;5.90;4.20;;;;;;;8.48;100.00;96859.03;5073216;28;20191;-60
2023/05/18 03:41:57;;;;;;;5.33;4.17;;;;;;;8.51;100.00;96860.56;5073218;28;20202;-59
2023/05/18 03:44:23;;;;;;;7.43;4.20;;;;;;;8.53;100.00;96850.75;5073505;28;20270;-60
2023/05/18 03:46:50;;;;;;;6.33;4.00;;;;;;;8.56;100.00;96871.56;5073840;28;20522;-60
2023/05/18 03:49:16;;;;;;;5.50;4.20;;;;;;;8.51;100.00;96863.19;5073030;28;20233;-60
2023/05/18 03:51:43;;;;;;;5.07;4.03;;;;;;;8.56;100.00;96860.19;5073150;28;20206;-59
2023/05/18 03:54:09;;;;;;;5.20;4.33;;;;;;;8.58;100.00;96856.47;5073767;28;20340;-60
2023/05/18 03:56:36;;;;;;;6.10;4.20;;;;;;;8.56;100.00;96871.56;5073049;28;20214;-60
2023/05/18 03:59:04;;;;;;;5.23;4.10;;;;;;;8.57;100.00;96861.88;5072446;28;20214;-60
2023/05/18 04:01:31;;;;;;;4.10;3.70;;;;;;;8.67;100.00;96863.63;5072280;28;20240;-60
2023/05/18 04:03:58;;;;;;;4.13;3.73;;;;;;;8.59;100.00;96858.16;5072860;28;20195;-60
2023/05/18 04:06:25;;;;;;;6.40;4.37;;;;;;;8.70;100.00;96867.81;5072988;28;20210;-60
2023/05/18 04:08:52;;;;;;;6.17;4.60;;;;;;;8.74;100.00;96864.81;5072791;28;20271;-60
2023/05/18 04:11:18;;;;;;;6.40;4.40;;;;;;;8.71;100.00;96865.06;5071636;28;20651;-59
2023/05/18 04:13:45;;;;;;;9.53;4.50;;;;;;;8.75;100.00;96869.09;5072247;28;20194;-60
2023/05/18 04:16:13;;;;;;;6.07;4.80;;;;;;;8.76;100.00;96873.41;5072943;28;20218;-60
2023/05/18 04:18:41;;;;;;;5.03;4.57;;;;;;;8.82;100.00;96869.44;5072906;28;20636;-60
2023/05/18 04:21:07;;;;;;;5.67;4.30;;;;;;;8.81;100.00;96875.69;5072435;28;20211;-60
2023/05/18 04:23:37;;;;;;;6.47;4.30;;;;;;;8.79;100.00;96874.94;5072559;28;20578;-59
2023/05/18 04:26:04;;;;;;;5.37;4.53;;;;;;;8.83;100.00;96877.22;5072834;28;20217;-60
2023/05/18 04:28:31;;;;;;;5.70;4.17;;;;;;;8.88;100.00;96872.41;5072402;28;20562;-59
2023/05/18 04:30:57;;;;;;;5.30;4.50;;;;;;;8.87;100.00;96875.16;5073570;28;20203;-59
2023/05/18 04:33:25;;;;;;;6.77;4.60;;;;;;;8.93;100.00;96874.66;5071861;28;20210;-60
2023/05/18 04:35:53;;;;;;;7.07;4.90;;;;;;;9.03;100.00;96875.59;5073050;28;20529;-60
2023/05/18 04:38:22;;;;;;;5.40;4.30;;;;;;;9.10;100.00;96882.03;5072828;28;20207;-60
2023/05/18 04:40:49;;;;;;;5.57;4.40;;;;;;;9.16;95.70;96883.28;5073015;28;20202;-60
2023/05/18 04:43:16;;;;;;;6.87;4.90;;;;;;;9.14;99.35;96888.69;5071905;28;20198;-60
2023/05/18 04:45:45;;;;;;;6.07;4.80;;;;;;;9.36;98.71;96887.72;5072643;28;20639;-60
2023/05/18 04:48:13;;;;;;;7.73;4.47;;;;;;;9.83;93.42;96888.94;5070953;28;20214;-60
2023/05/18 04:50:41;;;;;;;8.67;4.53;;;;;;;10.13;93.30;96893.41;5072713;28;20203;-60
2023/05/18 04:53:07;;;;;;;5.60;4.40;;;;;;;10.30;91.28;96888.31;5071731;28;20249;-60
2023/05/18 04:55:34;;;;;;;6.93;4.60;;;;;;;10.47;89.55;96892.13;5072877;28;20210;-60
2023/05/18 04:58:02;;;;;;;6.27;4.63;;;;;;;10.50;90.27;96889.19;5071766;28;20210;-60
2023/05/18 05:00:29;;;;;;;6.33;4.40;;;;;;;10.59;87.46;96885.75;5072422;28;20537;-61
2023/05/18 05:02:56;;;;;;;5.87;4.00;;;;;;;11.08;86.10;96897.19;5071942;28;20230;-60
2023/05/18 05:05:24;;;;;;;4.50;4.10;;;;;;;11.53;83.55;96892.09;5091330;28;20195;-59
2023/05/18 05:07:52;;;;;;;4.57;4.17;;;;;;;11.48;79.34;96900.47;5088508;28;20207;-60
2023/05/18 05:10:19;;;;;;;4.37;3.80;;;;;;;11.70;77.06;96888.69;5083508;28;20198;-60
2023/05/18 05:12:46;;;;;;;9.43;4.30;;;;;;;11.95;77.56;96896.88;5072327;28;20213;-59
2023/05/18 05:15:12;;;;;;;6.07;4.27;;;;;;;12.08;79.05;96898.38;5072424;28;20260;-61
2023/05/18 05:17:39;;;;;;;5.77;4.03;;;;;;;12.06;77.80;96901.16;5071631;28;20206;-60
2023/05/18 05:20:06;;;;;;;5.73;3.97;;;;;;;12.14;77.70;96893.34;5071947;28;20503;-61
2023/05/18 05:22:33;;;;;;;5.43;4.33;;;;;;;12.50;75.39;96888.97;5070591;28;20238;-60
2023/05/18 05:25:00;;;;;;;8.63;4.30;;;;;;;12.41;74.39;96887.19;5071725;28;20298;-61
2023/05/18 05:27:27;;;;;;;6.17;4.30;;;;;;;12.56;71.82;96896.31;5071260;28;20206;-60
2023/05/18 05:29:53;;;;;;;6.23;4.20;;;;;;;12.91;71.84;96883.06;5071158;28;20229;-60
2023/05/18 05:32:20;;;;;;;6.77;4.00;;;;;;;13.01;70.49;96896.25;5071609;28;20202;-60
2023/05/18 05:34:49;;;;;;;4.07;3.57;;;;;;;13.07;71.03;96894.84;5071268;28;20210;-60
2023/05/18 05:37:15;;;;;;;4.80;4.30;;;;;;;13.19;70.20;96889.16;5071592;28;20310;-60
2023/05/18 05:39:42;;;;;;;5.07;3.70;;;;;;;13.66;68.68;96902.16;5071189;28;20226;-60
2023/05/18 05:42:10;;;;;;;6.90;4.13;;;;;;;13.61;69.58;96896.44;5071128;28;20203;-59
2023/05/18 05:44:38;;;;;;;4.97;4.40;;;;;;;13.62;68.34;96898.97;5071297;28;20213;-59
2023/05/18 05:47:06;;;;;;;4.93;4.07;;;;;;;14.04;69.12;96895.56;5070780;28;20726;-60
2023/05/18 05:49:32;;;;;;;6.13;4.07;;;;;;;13.95;68.49;96900.00;5070777;28;20237;-59
2023/05/18 05:51:59;;;;;;;4.87;3.80;;;;;;;13.93;67.01;96899.31;5070368;28;20207;-60
2023/05/18 05:54:25;;;;;;;4.80;3.97;;;;;;;13.21;68.10;96902.31;5071435;28;20217;-59
2023/05/18 05:56:52;;;;;;;5.00;4.50;;;;;;;12.68;70.27;96907.56;5070329;28;20550;-58
2023/05/18 05:59:21;;;;;;;4.90;3.90;;;;;;;12.70;73.53;96901.09;5070850;28;20199;-59
2023/05/18 06:01:47;;;;;;;5.87;4.70;;;;;;;12.49;75.43;96897.88;5071780;28;20224;-59
2023/05/18 06:04:14;;;;;;;5.17;3.97;;;;;;;12.44;74.80;96900.13;5070381;28;20202;-59
2023/05/18 06:06:42;;;;;;;5.73;4.27;;;;;;;12.15;74.29;96910.06;5071394;28;20194;-59
2023/05/18 06:09:09;;;;;;;7.07;4.37;;;;;;;12.06;74.25;96906.47;5071089;28;20250;-60
2023/05/18 06:11:35;;;;;;;4.90;4.23;;;;;;;11.77;75.46;96903.91;5070651;28;20310;-60
2023/05/18 06:14:02;;;;;;;5.67;4.33;;;;;;;11.96;76.40;96908.31;5070074;28;20213;-60
2023/05/18 06:16:30;;;;;;;8.03;4.37;;;;;;;11.97;76.43;96912.66;5070983;28;20213;-60
2023/05/18 06:18:56;;;;;;;5.37;4.73;;;;;;;11.91;77.57;96908.75;5070916;28;20233;-60
2023/05/18 06:21:23;;;;;;;7.80;4.60;;;;;;;12.10;77.12;96912.31;5070342;28;20207;-62
2023/05/18 06:23:49;;;;;;;8.23;4.80;;;;;;;12.05;75.04;96919.84;5069290;28;20230;-59
2023/05/18 06:26:16;;;;;;;6.87;4.60;;;;;;;12.08;76.76;96919.59;5070625;28;20202;-60
2023/05/18 06:28:42;;;;;;;5.20;4.40;;;;;;;12.11;76.43;96919.31;5070994;28;20238;-59
2023/05/18 06:31:09;;;;;;;6.97;4.63;;;;;;;11.87;77.15;96923.28;5071253;28;20334;-60
2023/05/18 06:33:37;;;;;;;5.03;4.50;;;;;;;11.75;78.43;96929.75;5073957;28;20252;-59
2023/05/18 06:36:04;;;;;;;6.40;4.40;;;;;;;11.66;79.37;96919.94;5075671;28;20305;-60
2023/05/18 06:38:31;;;;;;;6.00;4.30;;;;;;;11.79;79.15;96927.63;5073597;28;20210;-58
2023/05/18 06:40:57;;;;;;;13.37;9.10;;;;;;;11.72;78.73;96930.03;5075356;28;20214;-59
2023/05/18 06:43:25;;;;;;;7.20;5.00;;;;;;;11.84;78.01;96931.50;5083003;28;20210;-59
2023/05/18 06:45:52;;;;;;;5.87;5.07;;;;;;;12.49;79.22;96924.41;5088904;28;20190;-61
2023/05/18 06:48:18;;;;;;;5.37;4.73;;;;;;;12.89;73.14;96932.00;5079860;28;20667;-59
2023/05/18 06:50:46;;;;;;;7.60;4.90;;;;;;;13.39;74.93;96925.19;5070223;28;20233;-60
2023/05/18 06:53:13;;;;;;;5.17;4.57;;;;;;;13.35;70.77;96923.84;5070204;28;20213;-59
2023/05/18 06:55:39;;;;;;;5.10;4.53;;;;;;;13.60;72.09;96932.00;5070243;28;20616;-59
2023/05/18 06:58:06;;;;;;;7.50;4.90;;;;;;;14.08;70.37;96932.31;5070164;28;20203;-59
2023/05/18 07:00:33;;;;;;;5.60;4.30;;;;;;;14.75;68.88;96931.50;5070295;28;20202;-59
2023/05/18 07:03:00;;;;;;;9.00;4.53;;;;;;;15.15;66.08;96932.56;5070796;28;20202;-61
2023/05/18 07:05:28;;;;;;;6.07;4.50;;;;;;;15.09;64.90;96938.56;5071100;28;20259;-59
2023/05/18 07:07:56;;;;;;;6.82;4.88;;;;;;;15.22;64.53;96933.59;5073887;28;20513;-59
2023/05/18 07:10:23;;;;;;;4.90;4.40;;;;;;;15.70;68.61;96933.63;5072519;28;20222;-59
2023/05/18 07:12:49;;;;;;;7.38;4.50;;;;;;;15.52;61.99;96935.63;5071342;28;20213;-59
2023/05/18 07:15:16;;;;;;;5.10;4.55;;;;;;;15.62;61.60;96930.16;5071602;28;20203;-61
2023/05/18 07:17:43;;;;;;;6.60;4.45;;;;;;;15.54;63.27;96930.97;5072362;28;20655;-58
2023/05/18 07:20:10;;;;;;;7.55;5.28;;;;;;;15.41;62.21;96934.09;5073364;28;20197;-60
2023/05/18 07:22:37;;;;;;;5.65;4.45;;;;;;;15.95;63.34;96947.78;5069997;28;20234;-59
2023/05/18 07:25:05;;;;;;;5.97;4.63;;;;;;;16.14;60.77;96934.06;5071107;28;20536;-60
2023/05/18 07:27:33;;;;;;;6.15;4.55;;;;;;;16.70;62.80;96932.25;5077660;28;20198;-59
2023/05/18 07:29:59;;;;;;;6.15;4.28;;;;;;;16.81;61.07;96929.19;5078406;28;20231;-59
2023/05/18 07:32:26;;;;;;;6.43;4.97;;;;;;;17.02;59.83;96931.25;5075000;28;20226;-59
2023/05/18 07:34:53;;;;;;;9.73;4.55;;;;;;;17.02;58.93;96931.25;5072012;28;20206;-59
2023/05/18 07:37:20;;;;;;;6.65;4.60;;;;;;;16.83;58.68;96930.66;5072831;28;20195;-59
2023/05/18 07:39:47;;;;;;;5.88;4.38;;;;;;;16.99;59.35;96926.25;5069835;28;20215;-59
2023/05/18 07:42:15;;;;;;;6.03;4.32;;;;;;;16.77;60.55;96934.03;5070791;28;20222;-59
2023/05/18 07:44:41;;;;;;;4.72;4.10;;;;;;;16.52;62.65;96940.47;5069890;28;20202;-60
2023/05/18 07:47:08;;;;;;;4.55;4.10;;;;;;;16.09;60.24;96932.91;5073170;28;20217;-59
2023/05/18 07:49:34;;;;;;;8.30;4.53;;;;;;;16.57;61.78;96926.63;5073408;28;20226;-61
2023/05/18 07:52:01;;;;;;;6.47;4.63;;;;;;;16.52;59.01;96924.44;5072437;28;20198;-58
2023/05/18 07:54:27;;;;;;;7.38;4.55;;;;;;;16.52;60.05;96921.75;5074077;28;20210;-58
2023/05/18 07:56:54;;;;;;;6.53;4.75;;;;;;;16.55;60.65;96918.75;5073400;28;20203;-59
2023/05/18 07:59:22;;;;;;;5.07;4.57;;;;;;;16.58;60.02;96914.94;5072241;28;20623;-59
2023/05/18 08:01:48;;;;;;;6.78;4.45;;;;;;;16.98;58.14;96920.06;5072097;28;20203;-58
2023/05/18 08:04:14;;;;;;;6.03;4.38;;;;;;;16.90;58.18;96930.78;5072946;28;20639;-60
2023/05/18 08:06:41;;;;;;;7.30;4.82;;;;;;;16.71;59.89;96924.06;5073640;28;20207;-59
2023/05/18 08:09:07;;;;;;;8.57;4.80;;;;;;;16.96;57.52;96926.59;5072361;28;20528;-58
2023/05/18 08:11:34;;;;;;;5.88;4.53;;;;;;;17.46;58.39;96924.28;5072046;28;20195;-59
2023/05/18 08:14:00;;;;;;;5.57;4.75;;;;;;;17.36;56.49;96929.84;5072590;28;20647;-60
2023/05/18 08:16:28;;;;;;;5.45;4.82;;;;;;;17.09;56.83;96932.19;5073024;28;20214;-60
2023/05/18 08:18:54;;;;;;;6.20;4.68;;;;;;;16.69;57.03;96939.41;5073287;28;21433;-59
2023/05/18 08:21:21;;;;;;;5.50;4.43;;;;;;;16.17;59.87;96931.06;5071907;28;20716;-59
2023/05/18 08:23:47;;;;;;;5.30;4.80;;;;;;;15.88;62.57;96925.44;5072312;28;20750;-60
2023/05/18 08:26:14;;;;;;;7.45;4.20;;;;;;;15.94;62.88;96935.47;5072647;28;20631;-59
2023/05/18 08:28:40;;;;;;;5.90;4.65;;;;;;;16.69;64.07;96931.41;5072167;28;20202;-60
2023/05/18 08:31:07;;;;;;;5.93;4.43;;;;;;;17.02;59.33;96931.25;5072288;28;20229;-60
2023/05/18 08:33:35;;;;;;;6.72;4.63;;;;;;;16.96;59.28;96926.59;5072506;28;20217;-60
2023/05/18 08:36:03;;;;;;;6.43;4.65;;;;;;;16.72;57.65;96924.91;5072397;28;20218;-59
2023/05/18 08:38:30;;;;;;;6.22;4.15;;;;;;;16.92;59.94;96924.28;5075295;28;20199;-59
2023/05/18 08:41:04;;;;;;;5.32;4.32;;;;;;;16.78;63.22;96918.84;5075505;28;20209;-59
2023/05/18 08:43:32;;;;;;;5.30;4.57;;;;;;;16.80;60.45;96923.00;5077427;28;20216;-62
2023/05/18 08:46:04;;;;;;;6.43;4.63;;;;;;;16.39;62.22;96924.16;5077059;28;20194;-61
2023/05/18 08:48:31;;;;;;;6.43;4.75;;;;;;;16.36;62.91;96921.84;5078031;28;20199;-63
2023/05/18 08:51:01;;;;;;;8.50;4.80;;;;;;;16.12;62.01;96927.25;5077284;28;20218;-62
2023/05/18 08:53:29;;;;;;;6.60;4.57;;;;;;;15.94;65.42;96930.13;5078645;28;20214;-63
2023/05/18 08:55:57;;;;;;;6.07;4.43;;;;;;;15.90;63.46;96929.63;5075772;28;20212;-64
2023/05/18 08:58:30;;;;;;;4.82;4.35;;;;;;;15.86;64.56;96932.78;5076222;28;20202;-62
2023/05/18 09:00:56;;;;;;;4.63;4.15;;;;;;;15.78;63.68;96935.47;5078805;28;20576;-61
2023/05/18 09:03:24;;;;;;;5.72;4.60;;;;;;;15.72;64.11;96931.66;5077792;28;20217;-60
2023/05/18 09:05:52;;;;;;;5.68;4.57;;;;;;;15.62;63.71;96936.31;5079528;28;20201;-60
2023/05/18 09:08:20;;;;;;;6.65;4.72;;;;;;;15.56;64.43;96936.97;5077976;28;20225;-62
2023/05/18 09:10:48;;;;;;;5.93;4.53;;;;;;;15.14;66.56;96930.91;5075957;28;20226;-62
2023/05/18 09:13:15;;;;;;;6.95;4.45;;;;;;;15.12;66.94;96939.06;5073443;28;20230;-62
2023/05/18 09:15:45;;;;;;;4.85;4.35;;;;;;;15.22;69.63;96939.75;5076015;28;20206;-61
2023/05/18 09:18:12;;;;;;;6.28;4.88;;;;;;;15.11;68.74;96934.75;5079102;28;20587;-60
2023/05/18 09:20:39;;;;;;;5.65;4.63;;;;;;;15.15;69.64;96932.56;5075512;28;20286;-60
2023/05/18 09:23:05;;;;;;;5.93;4.38;;;;;;;15.07;67.55;96936.06;5071703;28;20234;-60
2023/05/18 09:25:34;;;;;;;6.22;4.50;;;;;;;14.88;69.71;96942.50;5071729;28;20218;-60
2023/05/18 09:28:04;;;;;;;5.75;4.40;;;;;;;14.58;68.41;96950.22;5071179;28;20203;-58
2023/05/18 09:30:40;;;;;;;7.95;4.80;;;;;;;14.42;69.19;96946.50;5070386;28;20569;-59
2023/05/18 09:33:15;;;;;;;4.45;4.07;;;;;;;14.26;70.42;96954.38;5070817;28;20700;-67
2023/05/18 09:35:47;;;;;;;5.72;4.60;;;;;;;14.24;69.55;96952.88;5071462;28;20256;-58
2023/05/18 09:38:16;;;;;;;6.93;4.57;;;;;;;14.35;68.61;96955.25;5072427;28;20212;-58
2023/05/18 09:40:45;;;;;;;5.13;4.20;;;;;;;14.37;70.48;96954.13;5071839;28;20199;-58
2023/05/18 09:43:12;;;;;;;7.50;4.30;;;;;;;14.22;70.87;96952.19;5071546;28;20195;-62
2023/05/18 09:45:43;;;;;;;7.67;4.70;;;;;;;14.43;69.65;96952.66;5068441;28;20210;-58
2023/05/18 09:48:13;;;;;;;4.53;4.10;;;;;;;14.19;70.18;96950.66;5070239;28;20199;-58
2023/05/18 09:50:39;;;;;;;5.60;4.40;;;;;;;14.31;70.41;96953.91;5072036;28;20246;-61
2023/05/18 09:53:07;;;;;;;5.47;4.43;;;;;;;14.24;69.31;96947.53;5074371;28;20202;-62
2023/05/18 09:55:36;;;;;;;6.50;4.63;;;;;;;14.23;68.55;96956.50;5081509;28;20206;-63
2023/05/18 09:58:07;;;;;;;5.93;4.47;;;;;;;14.38;68.50;96950.47;5083061;28;20198;-62
2023/05/18 10:00:37;;;;;;;6.23;4.90;;;;;;;14.68;69.00;96950.91;5082808;28;20230;-61
2023/05/18 10:03:04;;;;;;;5.47;4.30;;;;;;;15.18;65.80;96941.06;5085100;28;20195;-61
2023/05/18 10:05:33;;;;;;;6.47;4.40;;;;;;;15.52;67.00;96943.63;5080562;28;20643;-61
2023/05/18 10:08:00;;;;;;;5.30;4.40;;;;;;;15.60;66.03;96948.13;5081061;28;20210;-60
2023/05/18 10:10:28;;;;;;;4.60;4.20;;;;;;;15.61;65.13;96945.31;5074525;28;20644;-58
2023/05/18 10:12:57;;;;;;;7.97;4.57;;;;;;;15.60;66.10;96935.63;5069769;28;20237;-59
2023/05/18 10:15:25;;;;;;;5.47;4.68;;;;;;;15.45;64.49;96935.44;5070822;28;20225;-60
2023/05/18 10:17:55;;;;;;;6.78;4.63;;;;;;;15.28;65.17;96930.25;5070244;28;20217;-58
2023/05/18 10:20:25;;;;;;;5.75;4.82;;;;;;;15.16;66.26;96929.72;5071577;28;20186;-59
2023/05/18 10:22:52;;;;;;;5.53;4.60;;;;;;;15.10;67.60;96935.72;5069855;28;20229;-59
2023/05/18 10:25:21;;;;;;;6.50;4.50;;;;;;;15.12;67.15;96930.25;5069773;28;20252;-59
2023/05/18 10:27:49;;;;;;;6.05;4.22;;;;;;;15.20;67.62;96927.56;5069447;28;20199;-59
2023/05/18 10:30:18;;;;;;;5.38;4.55;;;;;;;15.04;66.04;96930.22;5068871;28;20230;-57
2023/05/18 10:32:46;;;;;;;5.38;4.32;;;;;;;14.97;66.75;96926.53;5069646;28;20244;-59
2023/05/18 10:35:13;;;;;;;5.03;4.18;;;;;;;15.19;68.05;96920.59;5070045;28;20297;-59
2023/05/18 10:37:41;;;;;;;4.53;4.13;;;;;;;15.43;69.02;96933.94;5069890;28;20210;-58
2023/05/18 10:40:09;;;;;;;5.63;4.45;;;;;;;15.50;66.64;96921.66;5070087;28;20203;-59
2023/05/18 10:42:35;;;;;;;7.22;4.63;;;;;;;15.64;66.74;96923.63;5070042;28;20224;-58
2023/05/18 10:45:02;;;;;;;5.68;4.60;;;;;;;15.76;67.32;96918.81;5069739;28;20206;-59
2023/05/18 10:47:30;;;;;;;5.72;4.55;;;;;;;15.82;65.41;96916.28;5070331;28;20198;-60
2023/05/18 10:50:01;;;;;;;6.47;4.57;;;;;;;16.45;63.66;96918.13;5070210;28;20317;-59
2023/05/18 10:52:30;;;;;;;7.07;4.38;;;;;;;16.29;62.00;96919.03;5069964;28;20203;-58
2023/05/18 10:54:58;;;;;;;5.35;4.40;;;;;;;16.09;61.89;96923.06;5069406;28;20685;-58
2023/05/18 10:57:26;;;;;;;6.72;4.68;;;;;;;15.92;63.10;96922.28;5070552;28;20220;-60
2023/05/18 10:59:53;;;;;;;4.63;4.20;;;;;;;15.66;64.85;96926.97;5070040;28;20581;-60
2023/05/18 11:02:20;;;;;;;6.82;4.57;;;;;;;15.46;65.24;96922.94;5070599;28;20211;-59
2023/05/18 11:04:47;;;;;;;4.68;4.20;;;;;;;15.21;65.91;96926.59;5070038;28;20218;-58
2023/05/18 11:07:16;;;;;;;6.75;4.47;;;;;;;15.17;67.57;96920.75;5068552;28;20260;-58
2023/05/18 11:09:43;;;;;;;5.85;4.95;;;;;;;14.78;67.62;96925.84;5069777;28;20264;-59
2023/05/18 11:12:12;;;;;;;5.30;4.15;;;;;;;14.83;74.77;96928.03;5069299;28;20202;-59
2023/05/18 11:14:47;;;;;;;7.85;4.50;;;;;;;14.69;71.79;96932.13;5069456;28;20346;-59
2023/05/18 11:17:21;;;;;;;6.78;4.63;;;;;;;14.35;69.38;96939.28;5069367;28;20201;-61
2023/05/18 11:20:14;;;;;;;7.15;4.60;;;;;;;14.62;69.95;96930.28;5069882;28;20209;-59
2023/05/18 11:22:45;;;;;;;5.37;4.60;;;;;;;14.69;69.54;96932.13;5073531;28;20237;-62
2023/05/18 11:25:39;;;;;;;5.60;3.95;;;;;;;14.80;70.21;96931.84;5073795;28;20216;-60
2023/05/18 11:28:08;;;;;;;6.93;4.63;;;;;;;14.69;68.35;96924.16;5073146;28;20272;-59
2023/05/18 11:30:50;;;;;;;5.47;4.15;;;;;;;14.83;69.07;96922.69;5073250;28;20309;-58
2023/05/18 11:33:23;;;;;;;4.60;4.07;;;;;;;15.15;68.32;96917.44;5071203;28;20344;-59
2023/05/18 11:35:57;;;;;;;5.88;4.32;;;;;;;15.14;67.95;96917.59;5072953;28;20230;-59
2023/05/18 11:38:44;;;;;;;4.72;4.00;;;;;;;15.18;69.22;96919.75;5072827;28;20649;-61